sensor_id;sensor_type;location;lat;lon;timestamp;P1;durP1;ratioP1;P2;durP2;ratioP2
13463;SDS011;6804;48.774;9.174;2023-02-13T00:01:11;9.97;;;7.77;;
13463;SDS011;6804;48.774;9.174;2023-02-13T00:03:39;10.47;;;8.03;;
13463;SDS011;6804;48.774;9.174;2023-02-13T00:06:06;11.03;;;7.07;;
13463;SDS011;6804;48.774;9.174;2023-02-13T00:08:34;11.23;;;7.47;;
13463;SDS011;6804;48.774;9.174;2023-02-13T00:11:01;10.77;;;7.63;;
13463;SDS011;6804;48.774;9.174;2023-02-13T00:13:32;10.30;;;7.40;;
13463;SDS011;6804;48.774;9.174;2023-02-13T00:16:02;10.33;;;7.40;;
13463;SDS011;6804;48.774;9.174;2023-02-13T00:18:32;10.60;;;8.13;;
13463;SDS011;6804;48.774;9.174;2023-02-13T00:21:07;9.13;;;6.87;;
13463;SDS011;6804;48.774;9.174;2023-02-13T00:23:35;9.57;;;7.77;;
13463;SDS011;6804;48.774;9.174;2023-02-13T00:26:04;9.83;;;7.63;;
13463;SDS011;6804;48.774;9.174;2023-02-13T00:28:33;12.80;;;8.40;;
13463;SDS011;6804;48.774;9.174;2023-02-13T00:31:03;11.10;;;7.93;;
13463;SDS011;6804;48.774;9.174;2023-02-13T00:33:37;10.50;;;7.90;;
13463;SDS011;6804;48.774;9.174;2023-02-13T00:36:05;10.50;;;8.10;;
13463;SDS011;6804;48.774;9.174;2023-02-13T00:38:38;11.27;;;7.93;;
13463;SDS011;6804;48.774;9.174;2023-02-13T00:41:07;10.50;;;8.13;;
13463;SDS011;6804;48.774;9.174;2023-02-13T00:43:35;12.10;;;8.30;;
13463;SDS011;6804;48.774;9.174;2023-02-13T00:46:07;12.33;;;8.63;;
13463;SDS011;6804;48.774;9.174;2023-02-13T00:48:38;10.83;;;8.50;;
13463;SDS011;6804;48.774;9.174;2023-02-13T00:51:06;12.20;;;8.70;;
13463;SDS011;6804;48.774;9.174;2023-02-13T00:53:37;12.47;;;8.47;;
13463;SDS011;6804;48.774;9.174;2023-02-13T00:56:07;11.60;;;8.10;;
13463;SDS011;6804;48.774;9.174;2023-02-13T00:58:34;10.13;;;7.63;;
13463;SDS011;6804;48.774;9.174;2023-02-13T01:01:03;11.60;;;8.60;;
13463;SDS011;6804;48.774;9.174;2023-02-13T01:03:38;10.93;;;8.27;;
13463;SDS011;6804;48.774;9.174;2023-02-13T01:06:05;11.20;;;8.20;;
13463;SDS011;6804;48.774;9.174;2023-02-13T01:08:33;14.43;;;8.53;;
13463;SDS011;6804;48.774;9.174;2023-02-13T01:11:00;15.73;;;8.87;;
13463;SDS011;6804;48.774;9.174;2023-02-13T01:13:28;14.20;;;8.07;;
13463;SDS011;6804;48.774;9.174;2023-02-13T01:15:58;11.67;;;8.57;;
13463;SDS011;6804;48.774;9.174;2023-02-13T01:18:25;11.77;;;8.93;;
13463;SDS011;6804;48.774;9.174;2023-02-13T01:21:01;12.43;;;9.00;;
13463;SDS011;6804;48.774;9.174;2023-02-13T01:23:32;11.03;;;8.17;;
13463;SDS011;6804;48.774;9.174;2023-02-13T01:26:02;12.77;;;8.67;;
13463;SDS011;6804;48.774;9.174;2023-02-13T01:28:32;13.30;;;9.30;;
13463;SDS011;6804;48.774;9.174;2023-02-13T01:30:59;13.77;;;9.60;;
13463;SDS011;6804;48.774;9.174;2023-02-13T01:33:27;14.83;;;9.50;;
13463;SDS011;6804;48.774;9.174;2023-02-13T01:35:55;12.60;;;9.10;;
13463;SDS011;6804;48.774;9.174;2023-02-13T01:38:24;12.13;;;9.10;;
13463;SDS011;6804;48.774;9.174;2023-02-13T01:40:53;12.07;;;8.73;;
13463;SDS011;6804;48.774;9.174;2023-02-13T01:43:23;14.10;;;9.20;;
13463;SDS011;6804;48.774;9.174;2023-02-13T01:45:51;14.37;;;8.83;;
13463;SDS011;6804;48.774;9.174;2023-02-13T01:48:22;13.00;;;9.37;;
13463;SDS011;6804;48.774;9.174;2023-02-13T01:50:52;15.27;;;9.87;;
13463;SDS011;6804;48.774;9.174;2023-02-13T01:53:26;14.57;;;10.07;;
13463;SDS011;6804;48.774;9.174;2023-02-13T01:56:00;12.90;;;9.87;;
13463;SDS011;6804;48.774;9.174;2023-02-13T01:58:36;14.30;;;9.67;;
13463;SDS011;6804;48.774;9.174;2023-02-13T02:01:06;14.57;;;9.17;;
13463;SDS011;6804;48.774;9.174;2023-02-13T02:03:37;13.77;;;9.47;;
13463;SDS011;6804;48.774;9.174;2023-02-13T02:06:10;13.53;;;9.80;;
13463;SDS011;6804;48.774;9.174;2023-02-13T02:08:46;13.70;;;9.50;;
13463;SDS011;6804;48.774;9.174;2023-02-13T02:11:16;13.23;;;9.07;;
13463;SDS011;6804;48.774;9.174;2023-02-13T02:13:51;13.67;;;9.43;;
13463;SDS011;6804;48.774;9.174;2023-02-13T02:16:21;12.03;;;8.73;;
13463;SDS011;6804;48.774;9.174;2023-02-13T02:18:50;13.83;;;9.20;;
13463;SDS011;6804;48.774;9.174;2023-02-13T02:21:28;14.40;;;9.27;;
13463;SDS011;6804;48.774;9.174;2023-02-13T02:30:20;15.80;;;9.57;;
13463;SDS011;6804;48.774;9.174;2023-02-13T02:33:10;13.33;;;9.17;;
13463;SDS011;6804;48.774;9.174;2023-02-13T02:36:00;13.47;;;9.27;;
13463;SDS011;6804;48.774;9.174;2023-02-13T02:38:44;14.30;;;9.73;;
13463;SDS011;6804;48.774;9.174;2023-02-13T02:41:27;13.83;;;9.03;;
13463;SDS011;6804;48.774;9.174;2023-02-13T02:44:20;16.03;;;10.40;;
13463;SDS011;6804;48.774;9.174;2023-02-13T02:47:01;12.97;;;9.03;;
13463;SDS011;6804;48.774;9.174;2023-02-13T02:53:01;16.20;;;10.30;;
13463;SDS011;6804;48.774;9.174;2023-02-13T02:55:47;16.33;;;10.00;;
13463;SDS011;6804;48.774;9.174;2023-02-13T02:58:23;16.20;;;10.93;;
13463;SDS011;6804;48.774;9.174;2023-02-13T03:01:14;16.53;;;10.83;;
13463;SDS011;6804;48.774;9.174;2023-02-13T03:04:00;18.63;;;11.70;;
13463;SDS011;6804;48.774;9.174;2023-02-13T03:06:51;19.00;;;11.40;;
13463;SDS011;6804;48.774;9.174;2023-02-13T03:09:25;17.33;;;11.37;;
13463;SDS011;6804;48.774;9.174;2023-02-13T03:12:12;17.07;;;11.10;;
13463;SDS011;6804;48.774;9.174;2023-02-13T03:15:01;15.73;;;10.80;;
13463;SDS011;6804;48.774;9.174;2023-02-13T03:17:32;18.07;;;11.40;;
13463;SDS011;6804;48.774;9.174;2023-02-13T03:20:20;14.17;;;9.90;;
13463;SDS011;6804;48.774;9.174;2023-02-13T03:23:14;16.27;;;10.40;;
13463;SDS011;6804;48.774;9.174;2023-02-13T03:25:47;16.63;;;10.83;;
13463;SDS011;6804;48.774;9.174;2023-02-13T03:28:25;17.87;;;11.03;;
13463;SDS011;6804;48.774;9.174;2023-02-13T03:31:20;15.77;;;10.93;;
13463;SDS011;6804;48.774;9.174;2023-02-13T03:34:03;18.27;;;11.33;;
13463;SDS011;6804;48.774;9.174;2023-02-13T03:36:40;15.60;;;10.40;;
13463;SDS011;6804;48.774;9.174;2023-02-13T03:39:34;16.23;;;11.07;;
13463;SDS011;6804;48.774;9.174;2023-02-13T03:42:10;16.60;;;11.83;;
13463;SDS011;6804;48.774;9.174;2023-02-13T03:44:46;17.37;;;11.37;;
13463;SDS011;6804;48.774;9.174;2023-02-13T03:47:34;19.07;;;11.80;;
13463;SDS011;6804;48.774;9.174;2023-02-13T03:50:02;17.70;;;12.33;;
13463;SDS011;6804;48.774;9.174;2023-02-13T03:52:34;18.43;;;12.70;;
13463;SDS011;6804;48.774;9.174;2023-02-13T03:55:11;17.00;;;11.17;;
13463;SDS011;6804;48.774;9.174;2023-02-13T03:57:59;15.47;;;10.83;;
13463;SDS011;6804;48.774;9.174;2023-02-13T04:00:49;18.90;;;11.63;;
13463;SDS011;6804;48.774;9.174;2023-02-13T04:03:21;18.70;;;11.77;;
13463;SDS011;6804;48.774;9.174;2023-02-13T04:06:01;16.93;;;10.83;;
13463;SDS011;6804;48.774;9.174;2023-02-13T04:08:32;19.57;;;11.80;;
13463;SDS011;6804;48.774;9.174;2023-02-13T04:11:02;17.10;;;11.80;;
13463;SDS011;6804;48.774;9.174;2023-02-13T04:13:37;16.53;;;11.43;;
13463;SDS011;6804;48.774;9.174;2023-02-13T04:16:12;15.83;;;10.57;;
13463;SDS011;6804;48.774;9.174;2023-02-13T04:18:43;18.87;;;11.40;;
13463;SDS011;6804;48.774;9.174;2023-02-13T04:21:14;17.47;;;11.40;;
13463;SDS011;6804;48.774;9.174;2023-02-13T04:23:44;16.93;;;12.13;;
13463;SDS011;6804;48.774;9.174;2023-02-13T04:26:16;17.07;;;11.63;;
13463;SDS011;6804;48.774;9.174;2023-02-13T04:28:49;17.87;;;11.73;;
13463;SDS011;6804;48.774;9.174;2023-02-13T04:31:19;16.90;;;11.50;;
13463;SDS011;6804;48.774;9.174;2023-02-13T04:33:46;18.70;;;11.77;;
13463;SDS011;6804;48.774;9.174;2023-02-13T04:36:15;16.33;;;11.50;;
13463;SDS011;6804;48.774;9.174;2023-02-13T04:38:42;18.73;;;12.10;;
13463;SDS011;6804;48.774;9.174;2023-02-13T04:41:12;16.83;;;11.40;;
13463;SDS011;6804;48.774;9.174;2023-02-13T04:43:41;18.27;;;12.53;;
13463;SDS011;6804;48.774;9.174;2023-02-13T04:46:08;16.03;;;11.27;;
13463;SDS011;6804;48.774;9.174;2023-02-13T04:48:37;16.63;;;11.03;;
13463;SDS011;6804;48.774;9.174;2023-02-13T04:51:04;17.73;;;11.93;;
13463;SDS011;6804;48.774;9.174;2023-02-13T04:53:35;18.30;;;12.13;;
13463;SDS011;6804;48.774;9.174;2023-02-13T04:56:05;18.60;;;12.40;;
13463;SDS011;6804;48.774;9.174;2023-02-13T04:58:35;18.40;;;11.80;;
13463;SDS011;6804;48.774;9.174;2023-02-13T05:01:09;18.77;;;11.40;;
13463;SDS011;6804;48.774;9.174;2023-02-13T05:03:40;17.63;;;12.17;;
13463;SDS011;6804;48.774;9.174;2023-02-13T05:06:07;17.77;;;11.70;;
13463;SDS011;6804;48.774;9.174;2023-02-13T05:08:35;17.93;;;11.80;;
13463;SDS011;6804;48.774;9.174;2023-02-13T05:11:02;18.37;;;12.37;;
13463;SDS011;6804;48.774;9.174;2023-02-13T05:13:29;21.07;;;12.67;;
13463;SDS011;6804;48.774;9.174;2023-02-13T05:16:04;18.27;;;11.77;;
13463;SDS011;6804;48.774;9.174;2023-02-13T05:18:34;17.93;;;11.30;;
13463;SDS011;6804;48.774;9.174;2023-02-13T05:21:01;19.87;;;12.67;;
13463;SDS011;6804;48.774;9.174;2023-02-13T05:23:46;17.57;;;12.07;;
13463;SDS011;6804;48.774;9.174;2023-02-13T05:26:16;19.10;;;11.60;;
13463;SDS011;6804;48.774;9.174;2023-02-13T05:28:46;17.57;;;11.43;;
13463;SDS011;6804;48.774;9.174;2023-02-13T05:31:40;18.43;;;11.07;;
13463;SDS011;6804;48.774;9.174;2023-02-13T05:34:08;18.43;;;12.00;;
13463;SDS011;6804;48.774;9.174;2023-02-13T05:36:36;19.00;;;13.33;;
13463;SDS011;6804;48.774;9.174;2023-02-13T05:39:04;19.13;;;11.53;;
13463;SDS011;6804;48.774;9.174;2023-02-13T05:41:32;19.70;;;12.83;;
13463;SDS011;6804;48.774;9.174;2023-02-13T05:44:01;17.30;;;11.37;;
13463;SDS011;6804;48.774;9.174;2023-02-13T05:46:35;18.80;;;12.13;;
13463;SDS011;6804;48.774;9.174;2023-02-13T05:49:11;19.90;;;11.13;;
13463;SDS011;6804;48.774;9.174;2023-02-13T05:51:43;18.90;;;12.33;;
13463;SDS011;6804;48.774;9.174;2023-02-13T05:54:16;17.67;;;11.60;;
13463;SDS011;6804;48.774;9.174;2023-02-13T05:56:43;19.77;;;11.57;;
13463;SDS011;6804;48.774;9.174;2023-02-13T05:59:11;16.67;;;11.67;;
13463;SDS011;6804;48.774;9.174;2023-02-13T06:01:41;17.10;;;11.23;;
13463;SDS011;6804;48.774;9.174;2023-02-13T06:04:08;19.50;;;12.23;;
13463;SDS011;6804;48.774;9.174;2023-02-13T06:06:37;21.63;;;12.37;;
13463;SDS011;6804;48.774;9.174;2023-02-13T06:09:05;18.43;;;12.23;;
13463;SDS011;6804;48.774;9.174;2023-02-13T06:11:32;19.20;;;13.03;;
13463;SDS011;6804;48.774;9.174;2023-02-13T06:14:03;17.87;;;11.47;;
13463;SDS011;6804;48.774;9.174;2023-02-13T06:16:36;19.33;;;12.33;;
13463;SDS011;6804;48.774;9.174;2023-02-13T06:19:03;21.20;;;12.90;;
13463;SDS011;6804;48.774;9.174;2023-02-13T06:21:38;18.30;;;11.60;;
13463;SDS011;6804;48.774;9.174;2023-02-13T06:24:05;21.57;;;13.13;;
13463;SDS011;6804;48.774;9.174;2023-02-13T06:26:41;19.63;;;13.10;;
13463;SDS011;6804;48.774;9.174;2023-02-13T06:29:14;19.70;;;13.50;;
13463;SDS011;6804;48.774;9.174;2023-02-13T06:31:44;22.77;;;14.07;;
13463;SDS011;6804;48.774;9.174;2023-02-13T06:34:14;21.20;;;13.40;;
13463;SDS011;6804;48.774;9.174;2023-02-13T06:36:44;20.57;;;13.37;;
13463;SDS011;6804;48.774;9.174;2023-02-13T06:39:12;22.53;;;13.53;;
13463;SDS011;6804;48.774;9.174;2023-02-13T06:41:40;22.07;;;14.33;;
13463;SDS011;6804;48.774;9.174;2023-02-13T06:44:10;22.77;;;14.97;;
13463;SDS011;6804;48.774;9.174;2023-02-13T06:46:40;22.07;;;13.63;;
13463;SDS011;6804;48.774;9.174;2023-02-13T06:51:57;22.83;;;13.20;;
13463;SDS011;6804;48.774;9.174;2023-02-13T06:54:27;21.67;;;14.17;;
13463;SDS011;6804;48.774;9.174;2023-02-13T06:56:54;20.00;;;13.37;;
13463;SDS011;6804;48.774;9.174;2023-02-13T06:59:22;25.83;;;14.70;;
13463;SDS011;6804;48.774;9.174;2023-02-13T07:01:50;25.10;;;14.43;;
13463;SDS011;6804;48.774;9.174;2023-02-13T07:04:17;22.70;;;13.53;;
13463;SDS011;6804;48.774;9.174;2023-02-13T07:06:45;21.40;;;13.80;;
13463;SDS011;6804;48.774;9.174;2023-02-13T07:09:14;20.20;;;13.73;;
13463;SDS011;6804;48.774;9.174;2023-02-13T07:11:44;21.07;;;12.87;;
13463;SDS011;6804;48.774;9.174;2023-02-13T07:14:16;20.47;;;14.03;;
13463;SDS011;6804;48.774;9.174;2023-02-13T07:16:44;28.57;;;15.97;;
13463;SDS011;6804;48.774;9.174;2023-02-13T07:19:15;25.67;;;13.57;;
13463;SDS011;6804;48.774;9.174;2023-02-13T07:21:43;24.20;;;13.73;;
13463;SDS011;6804;48.774;9.174;2023-02-13T07:24:19;23.73;;;13.30;;
13463;SDS011;6804;48.774;9.174;2023-02-13T07:26:47;21.23;;;13.13;;
13463;SDS011;6804;48.774;9.174;2023-02-13T07:29:15;26.17;;;14.70;;
13463;SDS011;6804;48.774;9.174;2023-02-13T07:31:47;22.63;;;13.20;;
13463;SDS011;6804;48.774;9.174;2023-02-13T07:34:17;23.07;;;13.80;;
13463;SDS011;6804;48.774;9.174;2023-02-13T07:36:44;22.53;;;13.57;;
13463;SDS011;6804;48.774;9.174;2023-02-13T07:39:13;22.10;;;13.50;;
13463;SDS011;6804;48.774;9.174;2023-02-13T07:41:45;22.23;;;13.87;;
13463;SDS011;6804;48.774;9.174;2023-02-13T07:44:15;24.27;;;14.60;;
13463;SDS011;6804;48.774;9.174;2023-02-13T07:46:48;24.27;;;14.03;;
13463;SDS011;6804;48.774;9.174;2023-02-13T07:49:17;22.67;;;14.53;;
13463;SDS011;6804;48.774;9.174;2023-02-13T07:51:47;20.80;;;14.03;;
13463;SDS011;6804;48.774;9.174;2023-02-13T07:54:15;25.63;;;15.57;;
13463;SDS011;6804;48.774;9.174;2023-02-13T07:56:42;22.17;;;13.83;;
13463;SDS011;6804;48.774;9.174;2023-02-13T07:59:14;21.13;;;14.50;;
13463;SDS011;6804;48.774;9.174;2023-02-13T08:01:48;23.20;;;15.47;;
13463;SDS011;6804;48.774;9.174;2023-02-13T08:04:19;20.73;;;13.53;;
13463;SDS011;6804;48.774;9.174;2023-02-13T08:06:46;19.73;;;13.07;;
13463;SDS011;6804;48.774;9.174;2023-02-13T08:09:17;19.60;;;13.67;;
13463;SDS011;6804;48.774;9.174;2023-02-13T08:12:05;22.43;;;14.47;;
13463;SDS011;6804;48.774;9.174;2023-02-13T08:14:40;22.63;;;14.83;;
13463;SDS011;6804;48.774;9.174;2023-02-13T08:17:10;20.43;;;13.90;;
13463;SDS011;6804;48.774;9.174;2023-02-13T08:19:41;28.67;;;15.80;;
13463;SDS011;6804;48.774;9.174;2023-02-13T08:22:11;25.63;;;16.33;;
13463;SDS011;6804;48.774;9.174;2023-02-13T08:24:39;27.57;;;17.00;;
13463;SDS011;6804;48.774;9.174;2023-02-13T08:27:09;20.33;;;15.00;;
13463;SDS011;6804;48.774;9.174;2023-02-13T08:29:40;26.03;;;16.30;;
13463;SDS011;6804;48.774;9.174;2023-02-13T08:32:07;22.97;;;14.83;;
13463;SDS011;6804;48.774;9.174;2023-02-13T08:34:41;21.70;;;14.50;;
13463;SDS011;6804;48.774;9.174;2023-02-13T08:37:09;18.73;;;14.30;;
13463;SDS011;6804;48.774;9.174;2023-02-13T08:39:39;17.80;;;12.93;;
13463;SDS011;6804;48.774;9.174;2023-02-13T08:42:09;18.70;;;13.03;;
13463;SDS011;6804;48.774;9.174;2023-02-13T08:44:41;16.57;;;11.83;;
13463;SDS011;6804;48.774;9.174;2023-02-13T08:47:12;15.30;;;11.63;;
13463;SDS011;6804;48.774;9.174;2023-02-13T08:49:39;13.93;;;10.70;;
13463;SDS011;6804;48.774;9.174;2023-02-13T08:52:09;13.20;;;10.90;;
13463;SDS011;6804;48.774;9.174;2023-02-13T08:54:37;13.43;;;9.77;;
13463;SDS011;6804;48.774;9.174;2023-02-13T08:57:04;13.37;;;10.63;;
13463;SDS011;6804;48.774;9.174;2023-02-13T08:59:34;11.17;;;8.93;;
13463;SDS011;6804;48.774;9.174;2023-02-13T09:02:01;14.20;;;9.80;;
13463;SDS011;6804;48.774;9.174;2023-02-13T09:04:28;11.70;;;9.10;;
13463;SDS011;6804;48.774;9.174;2023-02-13T09:06:58;10.73;;;8.40;;
13463;SDS011;6804;48.774;9.174;2023-02-13T09:09:26;10.77;;;8.53;;
13463;SDS011;6804;48.774;9.174;2023-02-13T09:11:55;12.63;;;9.47;;
13463;SDS011;6804;48.774;9.174;2023-02-13T09:14:25;11.83;;;9.17;;
13463;SDS011;6804;48.774;9.174;2023-02-13T09:16:54;11.33;;;9.00;;
13463;SDS011;6804;48.774;9.174;2023-02-13T09:19:24;10.77;;;8.87;;
13463;SDS011;6804;48.774;9.174;2023-02-13T09:21:51;10.93;;;8.77;;
13463;SDS011;6804;48.774;9.174;2023-02-13T09:24:21;10.80;;;9.07;;
13463;SDS011;6804;48.774;9.174;2023-02-13T09:26:49;12.47;;;9.40;;
13463;SDS011;6804;48.774;9.174;2023-02-13T09:29:25;11.23;;;9.27;;
13463;SDS011;6804;48.774;9.174;2023-02-13T09:32:04;11.60;;;9.13;;
13463;SDS011;6804;48.774;9.174;2023-02-13T09:34:32;12.93;;;8.97;;
13463;SDS011;6804;48.774;9.174;2023-02-13T09:36:59;11.23;;;9.97;;
13463;SDS011;6804;48.774;9.174;2023-02-13T09:39:29;12.63;;;9.40;;
13463;SDS011;6804;48.774;9.174;2023-02-13T09:41:59;12.53;;;10.27;;
13463;SDS011;6804;48.774;9.174;2023-02-13T09:44:30;11.47;;;9.20;;
13463;SDS011;6804;48.774;9.174;2023-02-13T09:47:05;11.80;;;9.90;;
13463;SDS011;6804;48.774;9.174;2023-02-13T09:49:40;12.00;;;9.43;;
13463;SDS011;6804;48.774;9.174;2023-02-13T09:52:12;11.53;;;9.33;;
13463;SDS011;6804;48.774;9.174;2023-02-13T09:54:39;12.23;;;9.73;;
13463;SDS011;6804;48.774;9.174;2023-02-13T09:57:11;11.03;;;9.57;;
13463;SDS011;6804;48.774;9.174;2023-02-13T09:59:45;10.90;;;9.30;;
13463;SDS011;6804;48.774;9.174;2023-02-13T10:02:36;11.77;;;9.67;;
13463;SDS011;6804;48.774;9.174;2023-02-13T10:08:07;10.97;;;9.20;;
13463;SDS011;6804;48.774;9.174;2023-02-13T10:10:49;10.33;;;8.73;;
13463;SDS011;6804;48.774;9.174;2023-02-13T10:13:23;11.13;;;9.17;;
13463;SDS011;6804;48.774;9.174;2023-02-13T10:16:01;11.20;;;9.37;;
13463;SDS011;6804;48.774;9.174;2023-02-13T10:18:40;10.27;;;9.13;;
13463;SDS011;6804;48.774;9.174;2023-02-13T10:21:15;9.67;;;8.63;;
13463;SDS011;6804;48.774;9.174;2023-02-13T10:23:50;10.23;;;8.20;;
13463;SDS011;6804;48.774;9.174;2023-02-13T10:26:25;12.37;;;8.97;;
13463;SDS011;6804;48.774;9.174;2023-02-13T10:29:08;9.40;;;8.40;;
13463;SDS011;6804;48.774;9.174;2023-02-13T10:31:59;10.47;;;8.37;;
13463;SDS011;6804;48.774;9.174;2023-02-13T10:34:35;10.40;;;8.40;;
13463;SDS011;6804;48.774;9.174;2023-02-13T10:37:08;9.50;;;8.43;;
13463;SDS011;6804;48.774;9.174;2023-02-13T10:39:45;9.27;;;8.27;;
13463;SDS011;6804;48.774;9.174;2023-02-13T10:42:19;8.93;;;7.60;;
13463;SDS011;6804;48.774;9.174;2023-02-13T10:44:53;9.57;;;8.27;;
13463;SDS011;6804;48.774;9.174;2023-02-13T10:47:42;10.30;;;8.13;;
13463;SDS011;6804;48.774;9.174;2023-02-13T10:50:25;9.63;;;7.90;;
13463;SDS011;6804;48.774;9.174;2023-02-13T10:53:07;11.20;;;8.40;;
13463;SDS011;6804;48.774;9.174;2023-02-13T10:55:59;9.30;;;8.30;;
13463;SDS011;6804;48.774;9.174;2023-02-13T10:58:53;8.87;;;7.97;;
13463;SDS011;6804;48.774;9.174;2023-02-13T11:01:33;8.87;;;7.97;;
13463;SDS011;6804;48.774;9.174;2023-02-13T11:04:06;9.37;;;8.27;;
13463;SDS011;6804;48.774;9.174;2023-02-13T11:06:39;9.60;;;8.27;;
13463;SDS011;6804;48.774;9.174;2023-02-13T11:09:09;9.33;;;8.33;;
13463;SDS011;6804;48.774;9.174;2023-02-13T11:11:43;11.93;;;8.67;;
13463;SDS011;6804;48.774;9.174;2023-02-13T11:14:12;9.23;;;7.57;;
13463;SDS011;6804;48.774;9.174;2023-02-13T11:16:47;8.87;;;7.87;;
13463;SDS011;6804;48.774;9.174;2023-02-13T11:19:19;8.40;;;7.50;;
13463;SDS011;6804;48.774;9.174;2023-02-13T11:21:54;9.17;;;8.27;;
13463;SDS011;6804;48.774;9.174;2023-02-13T11:24:27;8.23;;;6.80;;
13463;SDS011;6804;48.774;9.174;2023-02-13T11:27:09;8.03;;;6.67;;
13463;SDS011;6804;48.774;9.174;2023-02-13T11:29:49;8.23;;;6.70;;
13463;SDS011;6804;48.774;9.174;2023-02-13T11:32:21;7.13;;;6.43;;
13463;SDS011;6804;48.774;9.174;2023-02-13T11:34:55;8.40;;;7.60;;
13463;SDS011;6804;48.774;9.174;2023-02-13T11:37:29;9.60;;;7.10;;
13463;SDS011;6804;48.774;9.174;2023-02-13T11:40:20;7.87;;;7.07;;
13463;SDS011;6804;48.774;9.174;2023-02-13T11:42:57;7.10;;;6.40;;
13463;SDS011;6804;48.774;9.174;2023-02-13T11:45:25;7.57;;;6.43;;
13463;SDS011;6804;48.774;9.174;2023-02-13T11:47:53;7.43;;;6.53;;
13463;SDS011;6804;48.774;9.174;2023-02-13T11:50:22;7.70;;;6.87;;
13463;SDS011;6804;48.774;9.174;2023-02-13T11:52:55;9.20;;;6.80;;
13463;SDS011;6804;48.774;9.174;2023-02-13T11:55:29;7.27;;;6.57;;
13463;SDS011;6804;48.774;9.174;2023-02-13T11:57:58;7.17;;;6.23;;
13463;SDS011;6804;48.774;9.174;2023-02-13T12:00:31;7.03;;;6.33;;
13463;SDS011;6804;48.774;9.174;2023-02-13T12:03:23;7.70;;;6.50;;
13463;SDS011;6804;48.774;9.174;2023-02-13T12:06:03;8.93;;;6.23;;
13463;SDS011;6804;48.774;9.174;2023-02-13T12:08:44;6.93;;;6.17;;
13463;SDS011;6804;48.774;9.174;2023-02-13T12:11:16;7.00;;;6.30;;
13463;SDS011;6804;48.774;9.174;2023-02-13T12:13:53;7.57;;;6.23;;
13463;SDS011;6804;48.774;9.174;2023-02-13T12:16:25;6.43;;;5.83;;
13463;SDS011;6804;48.774;9.174;2023-02-13T12:18:59;6.97;;;5.93;;
13463;SDS011;6804;48.774;9.174;2023-02-13T12:21:38;6.50;;;5.83;;
13463;SDS011;6804;48.774;9.174;2023-02-13T12:24:31;7.40;;;5.90;;
13463;SDS011;6804;48.774;9.174;2023-02-13T12:27:09;6.50;;;5.43;;
13463;SDS011;6804;48.774;9.174;2023-02-13T12:30:05;8.90;;;7.10;;
13463;SDS011;6804;48.774;9.174;2023-02-13T12:32:59;9.13;;;8.23;;
13463;SDS011;6804;48.774;9.174;2023-02-13T12:35:40;8.30;;;7.27;;
13463;SDS011;6804;48.774;9.174;2023-02-13T12:38:17;8.63;;;7.30;;
13463;SDS011;6804;48.774;9.174;2023-02-13T12:41:17;8.33;;;7.53;;
13463;SDS011;6804;48.774;9.174;2023-02-13T12:47:06;9.83;;;7.37;;
13463;SDS011;6804;48.774;9.174;2023-02-13T12:49:52;8.43;;;7.47;;
13463;SDS011;6804;48.774;9.174;2023-02-13T12:52:42;10.93;;;7.63;;
13463;SDS011;6804;48.774;9.174;2023-02-13T12:58:30;10.00;;;7.60;;
13463;SDS011;6804;48.774;9.174;2023-02-13T13:01:12;8.70;;;7.50;;
13463;SDS011;6804;48.774;9.174;2023-02-13T13:03:51;8.77;;;7.13;;
13463;SDS011;6804;48.774;9.174;2023-02-13T13:09:30;8.97;;;8.03;;
13463;SDS011;6804;48.774;9.174;2023-02-13T13:12:16;8.40;;;7.60;;
13463;SDS011;6804;48.774;9.174;2023-02-13T13:15:00;9.57;;;8.50;;
13463;SDS011;6804;48.774;9.174;2023-02-13T13:17:44;8.77;;;7.63;;
13463;SDS011;6804;48.774;9.174;2023-02-13T13:23:19;11.77;;;9.17;;
13463;SDS011;6804;48.774;9.174;2023-02-13T13:25:55;8.20;;;7.40;;
13463;SDS011;6804;48.774;9.174;2023-02-13T13:28:28;9.23;;;8.07;;
13463;SDS011;6804;48.774;9.174;2023-02-13T13:31:07;13.77;;;8.40;;
13463;SDS011;6804;48.774;9.174;2023-02-13T13:33:42;10.37;;;7.90;;
13463;SDS011;6804;48.774;9.174;2023-02-13T13:36:13;8.17;;;7.10;;
13463;SDS011;6804;48.774;9.174;2023-02-13T13:38:56;9.60;;;7.13;;
13463;SDS011;6804;48.774;9.174;2023-02-13T13:41:30;9.37;;;7.17;;
13463;SDS011;6804;48.774;9.174;2023-02-13T13:44:08;8.07;;;7.27;;
13463;SDS011;6804;48.774;9.174;2023-02-13T13:46:53;8.57;;;7.10;;
13463;SDS011;6804;48.774;9.174;2023-02-13T13:49:33;10.00;;;7.37;;
13463;SDS011;6804;48.774;9.174;2023-02-13T13:52:21;7.77;;;6.80;;
13463;SDS011;6804;48.774;9.174;2023-02-13T13:54:50;9.73;;;7.83;;
13463;SDS011;6804;48.774;9.174;2023-02-13T13:57:21;8.73;;;7.33;;
13463;SDS011;6804;48.774;9.174;2023-02-13T14:00:01;8.50;;;7.60;;
13463;SDS011;6804;48.774;9.174;2023-02-13T14:03:19;9.50;;;8.20;;
13463;SDS011;6804;48.774;9.174;2023-02-13T14:05:56;8.27;;;7.47;;
13463;SDS011;6804;48.774;9.174;2023-02-13T14:11:35;9.70;;;7.90;;
13463;SDS011;6804;48.774;9.174;2023-02-13T14:17:10;7.63;;;6.80;;
13463;SDS011;6804;48.774;9.174;2023-02-13T14:19:41;9.10;;;7.77;;
13463;SDS011;6804;48.774;9.174;2023-02-13T14:22:26;9.67;;;7.17;;
13463;SDS011;6804;48.774;9.174;2023-02-13T14:25:02;8.47;;;7.47;;
13463;SDS011;6804;48.774;9.174;2023-02-13T14:27:32;7.53;;;6.83;;
13463;SDS011;6804;48.774;9.174;2023-02-13T14:30:03;8.60;;;7.47;;
13463;SDS011;6804;48.774;9.174;2023-02-13T14:32:40;9.10;;;7.40;;
13463;SDS011;6804;48.774;9.174;2023-02-13T14:35:24;8.07;;;7.27;;
13463;SDS011;6804;48.774;9.174;2023-02-13T14:37:56;7.70;;;6.77;;
13463;SDS011;6804;48.774;9.174;2023-02-13T14:43:18;9.13;;;7.30;;
13463;SDS011;6804;48.774;9.174;2023-02-13T14:46:01;8.73;;;6.93;;
13463;SDS011;6804;48.774;9.174;2023-02-13T14:48:44;10.33;;;7.27;;
13463;SDS011;6804;48.774;9.174;2023-02-13T14:51:21;8.77;;;7.20;;
13463;SDS011;6804;48.774;9.174;2023-02-13T14:53:55;9.40;;;7.30;;
13463;SDS011;6804;48.774;9.174;2023-02-13T14:56:29;9.63;;;6.67;;
13463;SDS011;6804;48.774;9.174;2023-02-13T14:59:00;8.63;;;7.20;;
13463;SDS011;6804;48.774;9.174;2023-02-13T15:01:41;8.63;;;6.87;;
13463;SDS011;6804;48.774;9.174;2023-02-13T15:04:16;7.67;;;6.53;;
13463;SDS011;6804;48.774;9.174;2023-02-13T15:06:49;9.93;;;6.77;;
13463;SDS011;6804;48.774;9.174;2023-02-13T15:09:25;9.03;;;6.77;;
13463;SDS011;6804;48.774;9.174;2023-02-13T15:12:03;8.83;;;7.80;;
13463;SDS011;6804;48.774;9.174;2023-02-13T15:14:49;7.90;;;7.10;;
13463;SDS011;6804;48.774;9.174;2023-02-13T15:17:19;8.67;;;7.03;;
13463;SDS011;6804;48.774;9.174;2023-02-13T15:19:49;8.80;;;7.07;;
13463;SDS011;6804;48.774;9.174;2023-02-13T15:22:25;9.10;;;7.27;;
13463;SDS011;6804;48.774;9.174;2023-02-13T15:24:58;7.47;;;6.67;;
13463;SDS011;6804;48.774;9.174;2023-02-13T15:27:29;8.53;;;6.77;;
13463;SDS011;6804;48.774;9.174;2023-02-13T15:30:16;8.60;;;6.93;;
13463;SDS011;6804;48.774;9.174;2023-02-13T15:32:51;8.30;;;6.40;;
13463;SDS011;6804;48.774;9.174;2023-02-13T15:35:24;6.53;;;5.80;;
13463;SDS011;6804;48.774;9.174;2023-02-13T15:37:54;8.43;;;6.33;;
13463;SDS011;6804;48.774;9.174;2023-02-13T15:40:23;7.83;;;6.70;;
13463;SDS011;6804;48.774;9.174;2023-02-13T15:42:59;7.90;;;6.63;;
13463;SDS011;6804;48.774;9.174;2023-02-13T15:45:27;7.93;;;6.70;;
13463;SDS011;6804;48.774;9.174;2023-02-13T15:47:56;11.50;;;7.10;;
13463;SDS011;6804;48.774;9.174;2023-02-13T15:50:26;9.67;;;6.93;;
13463;SDS011;6804;48.774;9.174;2023-02-13T15:53:04;7.77;;;6.73;;
13463;SDS011;6804;48.774;9.174;2023-02-13T15:55:53;8.63;;;7.77;;
13463;SDS011;6804;48.774;9.174;2023-02-13T15:58:26;9.53;;;6.53;;
13463;SDS011;6804;48.774;9.174;2023-02-13T16:01:00;7.70;;;6.13;;
13463;SDS011;6804;48.774;9.174;2023-02-13T16:03:39;8.37;;;7.33;;